createdAt,value
2018-11-21T00:01:16.740Z,82.40
2018-11-21T00:03:45.360Z,82.90
2018-11-21T00:06:13.989Z,82.60
2018-11-21T00:08:42.642Z,82.80
2018-11-21T00:11:11.284Z,83.50
2018-11-21T00:13:39.900Z,83.30
2018-11-21T00:16:08.530Z,82.70
2018-11-21T00:18:37.395Z,83.10
2018-11-21T00:21:06.039Z,82.60
2018-11-21T00:23:34.689Z,82.90
2018-11-21T00:26:03.528Z,82.90
2018-11-21T00:28:32.179Z,82.50
2018-11-21T00:31:00.867Z,82.40
2018-11-21T00:33:29.737Z,82.30
2018-11-21T00:35:58.629Z,82.60
2018-11-21T00:38:27.516Z,82.40
2018-11-21T00:40:56.629Z,82.70
2018-11-21T00:43:25.509Z,82.10
2018-11-21T00:45:54.130Z,82.00
2018-11-21T00:48:22.800Z,81.80
2018-11-21T00:50:51.434Z,81.40
2018-11-21T00:53:20.502Z,81.20
2018-11-21T00:55:50.311Z,81.90
2018-11-21T00:58:18.952Z,82.00
2018-11-21T01:00:47.824Z,81.60
2018-11-21T01:03:16.470Z,81.70
2018-11-21T01:05:45.120Z,81.00
2018-11-21T01:08:13.760Z,81.70
2018-11-21T01:10:42.382Z,81.60
2018-11-21T01:13:11.254Z,81.70
2018-11-21T01:15:39.903Z,82.30
2018-11-21T01:18:08.533Z,82.00
2018-11-21T01:20:37.383Z,82.00
2018-11-21T01:23:06.032Z,82.10
2018-11-21T01:25:34.760Z,82.10
2018-11-21T01:28:03.421Z,82.10
2018-11-21T01:30:32.062Z,82.00
2018-11-21T01:33:00.692Z,81.70
2018-11-21T01:35:29.563Z,81.30
2018-11-21T01:37:58.550Z,81.20
2018-11-21T01:40:27.591Z,81.40
2018-11-21T01:42:56.256Z,81.70
2018-11-21T01:45:24.901Z,81.40
2018-11-21T01:47:53.578Z,81.10
2018-11-21T01:50:22.209Z,81.20
2018-11-21T01:52:51.025Z,81.40
2018-11-21T01:55:20.620Z,81.60
2018-11-21T01:57:49.451Z,81.40
2018-11-21T02:00:18.077Z,81.70
2018-11-21T02:02:47.151Z,81.20
2018-11-21T02:05:15.818Z,81.50
2018-11-21T02:07:44.527Z,81.70
2018-11-21T02:10:13.368Z,81.50
2018-11-21T02:12:42.422Z,81.20
2018-11-21T02:15:11.499Z,81.30
2018-11-21T02:17:40.362Z,81.70
2018-11-21T02:20:09.570Z,81.60
2018-11-21T02:22:38.660Z,81.20
2018-11-21T02:25:07.455Z,81.30
2018-11-21T02:27:36.374Z,81.20
2018-11-21T02:30:05.862Z,80.80
2018-11-21T02:32:34.762Z,81.40
2018-11-21T02:35:03.411Z,81.40
2018-11-21T02:37:32.338Z,81.30
2018-11-21T02:40:01.727Z,81.20
2018-11-21T02:42:30.928Z,81.70
2018-11-21T02:45:00.056Z,81.60
2018-11-21T02:47:29.808Z,82.00
2018-11-21T02:49:58.473Z,81.70
2018-11-21T02:52:27.340Z,81.80
2018-11-21T02:54:56.281Z,81.50
2018-11-21T02:57:26.366Z,81.30
2018-11-21T03:00:07.629Z,81.60
2018-11-21T03:02:36.523Z,81.60
2018-11-21T03:05:05.575Z,81.80
2018-11-21T03:07:34.253Z,81.90
2018-11-21T03:10:03.116Z,81.40
2018-11-21T03:12:32.153Z,81.60
2018-11-21T03:15:00.896Z,81.60
2018-11-21T03:17:29.788Z,81.50
2018-11-21T03:19:58.682Z,81.50
2018-11-21T03:22:27.307Z,81.70
2018-11-21T03:24:55.998Z,81.70
2018-11-21T03:27:24.856Z,81.70
2018-11-21T03:29:53.550Z,81.60
2018-11-21T03:32:22.204Z,81.80
2018-11-21T03:34:51.242Z,81.50
2018-11-21T03:37:20.187Z,81.70
2018-11-21T03:39:49.325Z,81.70
2018-11-21T03:42:17.980Z,82.10
2018-11-21T03:44:47.067Z,82.00
2018-11-21T03:47:15.862Z,81.80
2018-11-21T03:49:45.073Z,81.60
2018-11-21T03:52:13.948Z,81.80
2018-11-21T03:54:42.959Z,81.70
2018-11-21T03:57:12.075Z,82.40
2018-11-21T03:59:41.235Z,81.70
2018-11-21T04:02:09.818Z,81.50
2018-11-21T04:04:38.700Z,81.70
2018-11-21T04:07:07.327Z,81.10
2018-11-21T04:09:35.960Z,81.30
2018-11-21T04:12:04.746Z,81.00
2018-11-21T04:14:33.848Z,81.00
2018-11-21T04:17:02.748Z,80.60
2018-11-21T04:19:31.556Z,80.60
2018-11-21T04:22:00.193Z,80.40
2018-11-21T04:24:29.124Z,80.40
2018-11-21T04:26:58.018Z,80.20
2018-11-21T04:29:26.626Z,80.40
2018-11-21T04:31:55.503Z,80.40
2018-11-21T04:34:24.391Z,80.20
2018-11-21T04:36:53.243Z,80.70
2018-11-21T04:39:22.130Z,80.80
2018-11-21T04:41:51.711Z,80.60
2018-11-21T04:44:21.179Z,81.00
2018-11-21T04:46:50.075Z,81.10
2018-11-21T04:49:18.955Z,80.90
2018-11-21T04:51:47.861Z,80.50
2018-11-21T04:54:16.733Z,80.60
2018-11-21T04:56:45.379Z,80.50
2018-11-21T04:59:14.033Z,80.80
2018-11-21T05:01:42.656Z,80.30
2018-11-21T05:04:11.526Z,80.60
2018-11-21T05:06:40.146Z,80.80
2018-11-21T05:09:10.001Z,80.50
2018-11-21T05:11:38.779Z,80.60
2018-11-21T05:14:07.530Z,80.80
2018-11-21T05:16:36.638Z,80.50
2018-11-21T05:19:05.632Z,80.80
2018-11-21T05:21:35.198Z,80.70
2018-11-21T05:24:04.132Z,81.30
2018-11-21T05:26:33.226Z,81.40
2018-11-21T05:29:02.353Z,81.00
2018-11-21T05:31:31.353Z,80.40
2018-11-21T05:33:59.976Z,80.90
2018-11-21T05:36:29.158Z,81.10
2018-11-21T05:38:58.204Z,80.70
2018-11-21T05:41:26.862Z,80.40
2018-11-21T05:43:55.858Z,80.60
2018-11-21T05:46:24.510Z,80.80
2018-11-21T05:48:53.344Z,80.10
2018-11-21T05:51:21.964Z,80.20
2018-11-21T05:53:51.834Z,80.60
2018-11-21T05:56:21.395Z,80.90
2018-11-21T05:58:50.548Z,81.00
2018-11-21T06:01:19.211Z,81.00
2018-11-21T06:03:47.827Z,81.20
2018-11-21T06:06:17.138Z,81.40
2018-11-21T06:08:46.119Z,81.30
2018-11-21T06:11:14.991Z,81.20
2018-11-21T06:13:44.349Z,81.00
2018-11-21T06:16:13.275Z,81.40
2018-11-21T06:18:42.161Z,81.00
2018-11-21T06:21:11.126Z,81.20
2018-11-21T06:23:40.025Z,80.90
2018-11-21T06:26:09.203Z,81.30
2018-11-21T06:28:37.840Z,81.60
2018-11-21T06:31:06.521Z,81.50
2018-11-21T06:33:35.165Z,81.50
2018-11-21T06:36:03.805Z,81.40
2018-11-21T06:38:32.442Z,81.30
2018-11-21T06:41:01.355Z,81.10
2018-11-21T06:43:30.223Z,81.40
2018-11-21T06:45:58.853Z,81.30
2018-11-21T06:48:27.723Z,81.60
2018-11-21T06:50:56.578Z,81.70
2018-11-21T06:53:25.434Z,81.70
2018-11-21T06:55:54.046Z,81.60
2018-11-21T06:58:23.055Z,81.70
2018-11-21T07:00:53.310Z,82.00
2018-11-21T07:03:21.944Z,82.00
2018-11-21T07:05:51.847Z,81.80
2018-11-21T07:08:21.406Z,81.70
2018-11-21T07:10:50.046Z,81.70
2018-11-21T07:13:19.598Z,81.90
2018-11-21T07:15:48.965Z,81.70
2018-11-21T07:18:17.593Z,81.90
2018-11-21T07:20:46.516Z,81.70
2018-11-21T07:23:15.374Z,81.70
2018-11-21T07:25:43.995Z,82.20
2018-11-21T07:28:13.280Z,81.60
2018-11-21T07:30:41.514Z,81.30
2018-11-21T07:33:10.151Z,81.40
2018-11-21T07:35:38.781Z,81.70
2018-11-21T07:38:07.427Z,81.90
2018-11-21T07:40:36.271Z,82.10
2018-11-21T07:43:05.523Z,82.30
2018-11-21T07:45:34.141Z,82.20
2018-11-21T07:48:03.153Z,81.90
2018-11-21T07:50:32.006Z,82.40
2018-11-21T07:53:00.642Z,82.20
2018-11-21T07:55:29.712Z,82.20
2018-11-21T07:58:00.714Z,81.90
2018-11-21T08:00:41.982Z,82.40
2018-11-21T08:03:10.916Z,83.10
2018-11-21T08:05:44.431Z,82.80
2018-11-21T08:08:19.634Z,82.40
2018-11-21T08:11:04.934Z,82.10
2018-11-21T08:13:50.992Z,81.90
2018-11-21T08:16:45.224Z,81.90
2018-11-21T08:19:33.367Z,82.30
2018-11-21T08:22:24.577Z,82.50
2018-11-21T08:25:30.928Z,82.30
2018-11-21T08:28:17.796Z,82.30
2018-11-21T08:30:46.446Z,82.10
2018-11-21T08:33:15.784Z,82.40
2018-11-21T08:35:44.511Z,82.40
2018-11-21T08:38:13.803Z,82.10
2018-11-21T08:40:42.436Z,81.90
2018-11-21T08:43:11.131Z,82.10
2018-11-21T08:45:40.022Z,82.00
2018-11-21T08:48:09.013Z,82.20
2018-11-21T08:50:37.764Z,81.70
2018-11-21T08:53:06.859Z,81.90
2018-11-21T08:55:36.040Z,81.50
2018-11-21T08:58:04.856Z,81.80
2018-11-21T09:00:33.796Z,81.70
2018-11-21T09:03:03.047Z,81.40
2018-11-21T09:05:31.668Z,81.20
2018-11-21T09:08:00.349Z,80.50
2018-11-21T09:12:57.148Z,81.30
2018-11-21T09:15:26.253Z,81.10
2018-11-21T09:17:55.104Z,81.40
2018-11-21T09:20:24.155Z,80.70
2018-11-21T09:22:53.255Z,81.00
2018-11-21T09:25:22.838Z,81.20
2018-11-21T09:27:51.425Z,80.70
2018-11-21T09:30:21.209Z,80.50
2018-11-21T09:32:51.208Z,80.70
2018-11-21T09:35:20.128Z,81.10
2018-11-21T09:37:48.754Z,80.40
2018-11-21T09:40:18.886Z,79.90
2018-11-21T09:42:48.764Z,79.50
2018-11-21T09:45:18.726Z,79.10
2018-11-21T09:47:47.397Z,79.40
2018-11-21T09:50:18.048Z,79.80
2018-11-21T09:52:50.359Z,79.70
2018-11-21T09:55:15.793Z,79.50
2018-11-21T09:57:44.691Z,79.70
2018-11-21T10:00:51.016Z,79.80
2018-11-21T10:03:21.995Z,79.30
2018-11-21T10:05:53.214Z,79.60
2018-11-21T10:08:59.984Z,79.40
2018-11-21T10:11:29.658Z,79.80
2018-11-21T10:13:58.311Z,79.50
2018-11-21T10:16:27.391Z,79.00
2018-11-21T10:18:57.591Z,79.30
2018-11-21T10:21:31.286Z,79.90
2018-11-21T10:24:00.048Z,78.70
2018-11-21T10:26:28.672Z,78.60
2018-11-21T10:28:58.033Z,78.40
2018-11-21T10:31:27.111Z,79.00
2018-11-21T10:33:56.377Z,79.10
2018-11-21T10:36:25.228Z,79.00
2018-11-21T10:38:53.875Z,78.40
2018-11-21T10:41:22.738Z,78.30
2018-11-21T10:43:51.861Z,77.90
2018-11-21T10:46:20.535Z,77.90
2018-11-21T10:48:49.472Z,78.30
2018-11-21T10:51:18.324Z,78.50
2018-11-21T10:53:47.165Z,78.20
2018-11-21T10:56:16.023Z,77.80
2018-11-21T10:58:44.682Z,78.00
2018-11-21T11:01:32.565Z,78.10
2018-11-21T11:04:07.976Z,78.40
2018-11-21T11:06:54.659Z,78.00
2018-11-21T11:09:41.521Z,77.90
2018-11-21T11:12:27.551Z,77.30
2018-11-21T11:15:13.882Z,77.50
2018-11-21T11:18:00.829Z,77.30
2018-11-21T11:20:57.682Z,78.00
2018-11-21T11:23:45.827Z,77.80
2018-11-21T11:26:28.103Z,78.40
2018-11-21T11:29:19.891Z,78.00
2018-11-21T11:32:10.017Z,78.20
2018-11-21T11:34:56.800Z,77.80
2018-11-21T11:37:49.930Z,78.20
2018-11-21T11:40:36.478Z,78.30
2018-11-21T11:43:22.768Z,78.10
2018-11-21T11:46:09.406Z,78.10
2018-11-21T11:48:55.704Z,78.70
2018-11-21T11:51:42.310Z,77.50
2018-11-21T11:54:42.756Z,77.20
2018-11-21T11:57:29.361Z,77.20
2018-11-21T12:00:11.871Z,77.40
2018-11-21T12:03:12.169Z,77.20
2018-11-21T12:05:59.335Z,77.70
2018-11-21T12:08:47.736Z,77.40
2018-11-21T12:11:53.920Z,77.30
2018-11-21T12:14:40.083Z,77.40
2018-11-21T12:17:26.460Z,77.90
2018-11-21T12:20:17.732Z,77.50
2018-11-21T12:23:08.616Z,77.40
2018-11-21T12:26:10.219Z,77.90
2018-11-21T12:28:43.877Z,78.50
2018-11-21T12:31:30.407Z,77.80
2018-11-21T12:34:12.854Z,77.90
2018-11-21T12:37:03.665Z,78.00
2018-11-21T12:39:50.786Z,77.10
2018-11-21T12:42:53.517Z,77.00
2018-11-21T12:45:50.984Z,77.40
2018-11-21T12:48:35.555Z,77.60
2018-11-21T12:51:32.177Z,77.20
2018-11-21T12:54:21.135Z,77.00
2018-11-21T12:57:07.336Z,76.80
2018-11-21T13:00:03.916Z,76.90
2018-11-21T13:02:51.795Z,77.00
2018-11-21T13:05:38.340Z,77.30
2018-11-21T13:08:32.260Z,76.80
2018-11-21T13:11:18.757Z,77.10
2018-11-21T13:14:07.467Z,76.90
2018-11-21T13:16:54.236Z,78.10
2018-11-21T13:19:41.460Z,77.60
2018-11-21T13:22:29.543Z,77.90
2018-11-21T13:25:16.018Z,78.10
2018-11-21T13:27:58.826Z,77.60
2018-11-21T13:30:47.021Z,77.90
2018-11-21T13:33:33.307Z,78.90
2018-11-21T13:36:14.900Z,79.00
2018-11-21T13:39:01.297Z,79.20
2018-11-21T13:41:47.958Z,78.70
2018-11-21T13:44:34.257Z,78.90
2018-11-21T13:47:13.883Z,78.70
2018-11-21T13:50:17.073Z,79.30
2018-11-21T13:53:08.995Z,79.10
2018-11-21T13:55:37.850Z,78.70
2018-11-21T13:58:06.486Z,78.90
2018-11-21T14:00:35.509Z,78.70
2018-11-21T14:03:05.340Z,78.60
2018-11-21T14:05:35.137Z,78.50
2018-11-21T14:08:04.708Z,78.50
2018-11-21T14:10:33.548Z,78.70
2018-11-21T14:13:02.176Z,78.30
2018-11-21T14:15:30.919Z,78.50
2018-11-21T14:18:00.291Z,78.50
2018-11-21T14:20:29.175Z,78.60
2018-11-21T14:22:57.791Z,78.30
2018-11-21T14:25:26.643Z,78.50
2018-11-21T14:27:55.267Z,78.70
2018-11-21T14:30:23.901Z,78.90
2018-11-21T14:32:52.609Z,79.10
2018-11-21T14:35:21.967Z,79.00
2018-11-21T14:37:50.596Z,79.30
2018-11-21T14:40:19.853Z,80.40
2018-11-21T14:42:48.950Z,79.30
2018-11-21T14:45:18.644Z,79.00
2018-11-21T14:47:49.564Z,79.40
2018-11-21T14:50:23.094Z,79.00
2018-11-21T14:52:51.956Z,79.10
2018-11-21T14:55:20.576Z,79.30
2018-11-21T14:57:49.222Z,79.30
2018-11-21T15:00:19.080Z,79.00
2018-11-21T15:02:47.976Z,79.10
2018-11-21T15:05:16.864Z,78.90
2018-11-21T15:07:46.209Z,79.20
2018-11-21T15:10:15.168Z,79.50
2018-11-21T15:12:44.078Z,79.60
2018-11-21T15:15:15.137Z,79.20
2018-11-21T15:17:43.845Z,79.20
2018-11-21T15:20:14.273Z,79.60
2018-11-21T15:22:43.113Z,79.30
2018-11-21T15:25:13.446Z,79.30
2018-11-21T15:27:42.404Z,79.10
2018-11-21T15:30:16.837Z,79.00
2018-11-21T15:32:45.552Z,79.10
2018-11-21T15:35:14.190Z,78.90
2018-11-21T15:37:43.350Z,79.00
2018-11-21T15:40:14.096Z,79.00
2018-11-21T15:42:42.863Z,79.20
2018-11-21T15:45:16.555Z,78.90
2018-11-21T15:47:49.956Z,79.00
2018-11-21T15:50:18.892Z,79.20
2018-11-21T15:52:52.742Z,79.20
2018-11-21T15:55:17.276Z,78.70
2018-11-21T15:57:46.115Z,78.90
2018-11-21T16:00:16.643Z,78.90
2018-11-21T16:02:49.105Z,78.90
2018-11-21T16:05:18.390Z,79.10
2018-11-21T16:07:47.575Z,79.20
2018-11-21T16:10:18.962Z,79.10
2018-11-21T16:12:46.295Z,79.20
2018-11-21T16:15:17.737Z,79.50
2018-11-21T16:17:46.455Z,79.90
2018-11-21T16:20:16.173Z,79.80
2018-11-21T16:22:45.022Z,79.70
2018-11-21T16:25:15.664Z,80.00
2018-11-21T16:27:45.078Z,80.20
2018-11-21T16:30:18.558Z,80.00
2018-11-21T16:32:47.453Z,80.10
2018-11-21T16:35:16.247Z,80.00
2018-11-21T16:37:45.209Z,80.30
2018-11-21T16:40:16.400Z,80.20
2018-11-21T16:42:45.021Z,79.90
2018-11-21T16:45:15.981Z,79.60
2018-11-21T16:47:44.628Z,79.60
2018-11-21T16:50:14.587Z,79.60
2018-11-21T16:52:43.429Z,80.10
2018-11-21T16:55:13.959Z,79.80
2018-11-21T16:57:42.954Z,80.00
2018-11-21T17:00:14.415Z,80.00
2018-11-21T17:02:43.190Z,80.20
2018-11-21T17:05:13.207Z,80.40
2018-11-21T17:07:42.171Z,80.60
2018-11-21T17:10:15.432Z,80.90
2018-11-21T17:12:44.551Z,81.50
2018-11-21T17:15:14.934Z,82.00
2018-11-21T17:17:43.928Z,81.70
2018-11-21T17:20:26.822Z,81.80
2018-11-21T17:22:56.394Z,82.00
2018-11-21T17:25:27.021Z,82.40
2018-11-21T17:27:55.918Z,83.10
2018-11-21T17:30:24.677Z,83.20
2018-11-21T17:32:53.869Z,83.20
2018-11-21T17:35:23.011Z,83.00
2018-11-21T17:37:52.297Z,82.80
2018-11-21T17:40:24.161Z,83.10
2018-11-21T17:42:53.896Z,82.50
2018-11-21T17:45:22.671Z,83.20
2018-11-21T17:47:52.396Z,82.80
2018-11-21T17:50:22.845Z,82.50
2018-11-21T17:52:53.174Z,82.90
2018-11-21T17:55:23.629Z,82.20
2018-11-21T17:57:52.543Z,81.90
2018-11-21T18:00:22.616Z,82.20
2018-11-21T18:02:51.439Z,82.40
2018-11-21T18:05:22.001Z,82.50
2018-11-21T18:07:51.574Z,82.80
2018-11-21T18:10:23.164Z,82.50
2018-11-21T18:12:51.934Z,82.20
2018-11-21T18:15:21.217Z,81.70
2018-11-21T18:17:50.104Z,81.60
2018-11-21T18:20:19.420Z,81.60
2018-11-21T18:22:49.186Z,82.40
2018-11-21T18:25:19.866Z,82.30
2018-11-21T18:27:48.727Z,82.20
2018-11-21T18:30:19.037Z,82.20
2018-11-21T18:32:47.971Z,82.60
2018-11-21T18:35:18.746Z,82.30
2018-11-21T18:37:48.041Z,82.40
2018-11-21T18:40:19.094Z,82.50
2018-11-21T18:42:48.051Z,82.70
2018-11-21T18:45:22.249Z,83.20
2018-11-21T18:47:51.194Z,82.80
2018-11-21T18:50:20.373Z,82.40
2018-11-21T18:52:50.440Z,82.30
2018-11-21T18:55:21.679Z,82.60
2018-11-21T18:58:24.195Z,82.80
2018-11-21T19:00:54.124Z,83.10
2018-11-21T19:03:22.854Z,83.10
2018-11-21T19:05:51.854Z,83.70
2018-11-21T19:08:20.874Z,84.10
2018-11-21T19:10:50.067Z,84.10
2018-11-21T19:13:19.553Z,84.30
2018-11-21T19:15:48.532Z,84.50
2018-11-21T19:18:17.384Z,84.80
2018-11-21T19:20:46.288Z,84.90
2018-11-21T19:23:14.955Z,85.60
2018-11-21T19:25:44.684Z,85.90
2018-11-21T19:28:13.549Z,86.00
2018-11-21T19:30:42.951Z,86.00
2018-11-21T19:33:11.585Z,86.40
2018-11-21T19:35:40.693Z,86.40
2018-11-21T19:38:09.343Z,86.70
2018-11-21T19:40:38.653Z,86.00
2018-11-21T19:43:07.647Z,86.10
2018-11-21T19:45:37.833Z,86.10
2018-11-21T19:48:06.495Z,86.70
2018-11-21T19:50:35.762Z,86.70
2018-11-21T19:53:04.983Z,86.70
2018-11-21T19:55:34.753Z,86.50
2018-11-21T19:58:03.380Z,86.50
2018-11-21T20:00:33.031Z,86.30
2018-11-21T20:03:01.984Z,86.30
2018-11-21T20:05:30.626Z,86.40
2018-11-21T20:07:59.654Z,86.50
2018-11-21T20:10:28.427Z,86.60
2018-11-21T20:12:57.098Z,86.90
2018-11-21T20:15:27.139Z,87.00
2018-11-21T20:17:57.490Z,87.30
2018-11-21T20:20:26.238Z,87.60
2018-11-21T20:22:54.892Z,87.70
2018-11-21T20:25:24.653Z,87.50
2018-11-21T20:27:53.553Z,87.50
2018-11-21T20:30:23.714Z,87.40
2018-11-21T20:32:52.367Z,87.50
2018-11-21T20:35:21.118Z,87.60
2018-11-21T20:37:50.032Z,87.80
2018-11-21T20:40:20.525Z,87.80
2018-11-21T20:42:49.778Z,87.40
2018-11-21T20:45:19.975Z,87.10
2018-11-21T20:47:50.245Z,87.20
2018-11-21T20:50:20.022Z,87.10
2018-11-21T20:52:49.272Z,87.00
2018-11-21T20:55:19.390Z,87.30
2018-11-21T20:57:48.193Z,87.70
2018-11-21T21:00:18.565Z,87.70
2018-11-21T21:02:47.600Z,87.90
2018-11-21T21:05:18.034Z,87.50
2018-11-21T21:07:46.820Z,88.00
2018-11-21T21:10:20.198Z,87.80
2018-11-21T21:12:49.121Z,87.60
2018-11-21T21:15:17.970Z,87.80
2018-11-21T21:17:47.692Z,87.70
